Time;durP1;ratioP1;P1;durP2;ratioP2;P2;SDS_P1;SDS_P2;PMS_P1;PMS_P2;Temp;Humidity;BMP_temperature;BMP_pressure;BME280_temperature;BME280_humidity;BME280_pressure;Samples;Min_cycle;Max_cycle;Signal;HPM_P1;HPM_P2
2022/10/13 00:01:56;;;;;;;22.00;12.75;;;;;;;;;;5050819;28;20041;-74
2022/10/13 00:04:22;;;;;;;24.73;12.95;;;;;;;;;;5061703;28;20041;-73
2022/10/13 00:06:48;;;;;;;21.55;12.18;;;;;;;;;;5040603;28;20044;-74
2022/10/13 00:09:14;;;;;;;22.05;12.82;;;;;;;;;;5042621;28;20106;-74
2022/10/13 00:11:40;;;;;;;25.08;12.68;;;;;;;;;;5042085;28;20040;-74
2022/10/13 00:14:06;;;;;;;23.85;12.88;;;;;;;;;;5041862;28;20402;-74
2022/10/13 00:16:32;;;;;;;24.33;13.15;;;;;;;;;;5041774;28;20118;-74
2022/10/13 00:18:58;;;;;;;24.35;13.35;;;;;;;;;;5042075;28;20530;-74
2022/10/13 00:21:26;;;;;;;27.65;13.55;;;;;;;;;;5041768;28;20706;-74
2022/10/13 00:23:53;;;;;;;25.05;13.75;;;;;;;;;;5024139;28;20080;-73
2022/10/13 00:26:19;;;;;;;27.77;13.38;;;;;;;;;;5041615;28;20049;-74
2022/10/13 00:28:45;;;;;;;22.45;13.65;;;;;;;;;;5055973;28;20056;-74
2022/10/13 00:31:18;;;;;;;19.83;13.13;;;;;;;;;;5041119;28;20041;-73
2022/10/13 00:33:44;;;;;;;27.23;14.02;;;;;;;;;;5044795;28;20098;-74
2022/10/13 00:36:10;;;;;;;25.38;14.48;;;;;;;;;;5052119;28;20542;-74
2022/10/13 00:38:36;;;;;;;22.25;13.50;;;;;;;;;;5047968;28;20132;-74
2022/10/13 00:41:02;;;;;;;26.60;13.70;;;;;;;;;;5050850;28;20050;-74
2022/10/13 00:43:48;;;;;;;21.98;14.30;;;;;;;;;;5051828;28;20041;-74
2022/10/13 00:46:15;;;;;;;21.63;13.98;;;;;;;;;;5049815;28;20464;-74
2022/10/13 00:48:41;;;;;;;28.35;13.77;;;;;;;;;;5048444;28;20041;-74
2022/10/13 00:51:08;;;;;;;19.35;14.20;;;;;;;;;;5050180;28;20110;-74
2022/10/13 00:53:35;;;;;;;26.33;14.38;;;;;;;;;;5051693;28;20053;-73
2022/10/13 00:56:02;;;;;;;22.35;13.45;;;;;;;;;;5034167;28;20517;-73
2022/10/13 00:58:30;;;;;;;23.90;14.00;;;;;;;;;;5064354;28;20049;-74
2022/10/13 01:00:56;;;;;;;25.92;13.75;;;;;;;;;;5033047;28;20483;-73
2022/10/13 01:03:23;;;;;;;26.20;13.95;;;;;;;;;;5054667;28;20486;-73
2022/10/13 01:05:50;;;;;;;22.77;13.88;;;;;;;;;;5056248;28;20049;-73
2022/10/13 01:08:17;;;;;;;25.10;14.30;;;;;;;;;;5045577;28;20617;-73
2022/10/13 01:10:49;;;;;;;26.13;14.00;;;;;;;;;;5049886;28;20041;-73
2022/10/13 01:13:25;;;;;;;23.92;14.30;;;;;;;;;;5048468;28;20514;-73
2022/10/13 01:16:06;;;;;;;21.23;14.15;;;;;;;;;;5051082;28;20048;-73
2022/10/13 01:18:35;;;;;;;25.33;14.32;;;;;;;;;;5048564;28;20041;-73
2022/10/13 01:21:05;;;;;;;25.33;14.52;;;;;;;;;;5054475;28;20095;-73
2022/10/13 01:23:34;;;;;;;25.00;13.93;;;;;;;;;;5053584;28;20072;-73
2022/10/13 01:26:16;;;;;;;25.10;14.63;;;;;;;;;;5054154;28;20052;-73
2022/10/13 01:28:47;;;;;;;27.27;14.68;;;;;;;;;;5053088;28;20640;-73
2022/10/13 01:31:17;;;;;;;26.15;14.88;;;;;;;;;;5053299;28;20088;-73
2022/10/13 01:33:44;;;;;;;30.45;15.10;;;;;;;;;;5054685;28;20102;-73
2022/10/13 01:36:10;;;;;;;25.52;14.55;;;;;;;;;;5054262;28;20491;-73
2022/10/13 01:38:46;;;;;;;24.40;14.38;;;;;;;;;;5051640;28;20469;-74
2022/10/13 01:41:21;;;;;;;24.15;14.73;;;;;;;;;;5069038;28;20124;-73
2022/10/13 01:44:05;;;;;;;25.52;14.93;;;;;;;;;;5054371;28;20065;-73
2022/10/13 01:46:36;;;;;;;27.60;15.10;;;;;;;;;;5040062;28;20041;-73
2022/10/13 01:49:04;;;;;;;25.45;14.65;;;;;;;;;;5028724;28;20045;-73
2022/10/13 01:51:31;;;;;;;27.15;15.85;;;;;;;;;;5051829;28;20067;-73
2022/10/13 01:53:57;;;;;;;22.38;14.50;;;;;;;;;;5053229;28;20048;-73
2022/10/13 01:56:23;;;;;;;26.17;14.77;;;;;;;;;;5052927;28;20041;-73
2022/10/13 01:58:50;;;;;;;25.08;14.80;;;;;;;;;;5051258;28;20051;-73
2022/10/13 02:01:31;;;;;;;20.25;15.05;;;;;;;;;;5054302;28;20041;-74
2022/10/13 02:04:00;;;;;;;25.65;15.30;;;;;;;;;;5035907;28;20133;-73
2022/10/13 02:06:31;;;;;;;25.08;15.40;;;;;;;;;;5052902;28;20052;-73
2022/10/13 02:09:08;;;;;;;27.75;15.13;;;;;;;;;;5051845;28;20056;-73
2022/10/13 02:11:34;;;;;;;26.02;15.75;;;;;;;;;;5051807;28;20068;-73
2022/10/13 02:14:00;;;;;;;24.75;15.57;;;;;;;;;;5069917;28;20457;-73
2022/10/13 02:16:28;;;;;;;27.77;15.45;;;;;;;;;;5047385;28;20407;-73
2022/10/13 02:18:55;;;;;;;27.00;15.05;;;;;;;;;;5052618;28;20049;-73
2022/10/13 02:21:21;;;;;;;27.30;15.88;;;;;;;;;;5053737;28;20036;-73
2022/10/13 02:23:47;;;;;;;25.55;15.88;;;;;;;;;;5053669;28;20419;-73
2022/10/13 02:26:13;;;;;;;32.63;16.45;;;;;;;;;;5069924;28;20098;-73
2022/10/13 02:28:40;;;;;;;26.33;15.27;;;;;;;;;;5053187;28;20053;-73
2022/10/13 02:31:08;;;;;;;27.33;15.88;;;;;;;;;;5053560;28;20052;-73
2022/10/13 02:33:34;;;;;;;26.08;15.80;;;;;;;;;;5052757;28;20045;-73
2022/10/13 02:36:00;;;;;;;28.60;16.83;;;;;;;;;;5036086;28;20053;-73
2022/10/13 02:38:26;;;;;;;26.08;16.75;;;;;;;;;;5053537;28;20041;-73
2022/10/13 02:40:53;;;;;;;27.50;16.35;;;;;;;;;;5051779;28;20052;-73
2022/10/13 02:43:19;;;;;;;26.83;15.90;;;;;;;;;;5034679;28;20040;-73
2022/10/13 02:45:45;;;;;;;27.75;16.25;;;;;;;;;;5051216;28;20049;-73
2022/10/13 02:48:11;;;;;;;24.70;16.02;;;;;;;;;;5051558;28;20048;-73
2022/10/13 02:50:37;;;;;;;28.52;16.25;;;;;;;;;;5052417;28;20048;-74
2022/10/13 02:53:03;;;;;;;27.83;16.52;;;;;;;;;;5054040;28;20045;-74
2022/10/13 02:55:30;;;;;;;28.05;15.90;;;;;;;;;;5067709;28;20037;-74
2022/10/13 02:57:56;;;;;;;28.73;16.30;;;;;;;;;;5049638;28;20037;-74
2022/10/13 03:00:23;;;;;;;30.70;16.65;;;;;;;;;;5039756;28;20036;-74
2022/10/13 03:02:49;;;;;;;24.75;15.55;;;;;;;;;;5049068;28;20391;-74
2022/10/13 03:05:16;;;;;;;23.02;15.23;;;;;;;;;;5039969;28;20033;-74
2022/10/13 03:07:42;;;;;;;27.50;16.95;;;;;;;;;;5052243;28;20061;-73
2022/10/13 03:10:08;;;;;;;32.22;18.45;;;;;;;;;;5053692;28;20057;-74
2022/10/13 03:12:34;;;;;;;31.55;16.38;;;;;;;;;;5052115;28;20484;-73
2022/10/13 03:15:00;;;;;;;29.48;18.60;;;;;;;;;;5051003;28;20045;-74
2022/10/13 03:17:26;;;;;;;26.63;17.83;;;;;;;;;;5052289;28;20063;-73
2022/10/13 03:19:52;;;;;;;26.73;16.92;;;;;;;;;;5051557;28;20127;-74
2022/10/13 03:22:18;;;;;;;29.02;17.05;;;;;;;;;;5053023;28;20045;-74
2022/10/13 03:24:44;;;;;;;27.55;17.55;;;;;;;;;;5054462;28;20114;-73
2022/10/13 03:27:10;;;;;;;25.60;17.17;;;;;;;;;;5052006;28;20454;-73
2022/10/13 03:29:36;;;;;;;29.25;17.23;;;;;;;;;;5052292;28;20071;-74
2022/10/13 03:32:02;;;;;;;29.33;17.92;;;;;;;;;;5047782;28;20049;-74
2022/10/13 03:34:29;;;;;;;30.55;17.95;;;;;;;;;;5065149;28;20057;-73
2022/10/13 03:36:55;;;;;;;31.60;18.77;;;;;;;;;;5048905;28;20052;-74
2022/10/13 03:39:21;;;;;;;31.90;17.90;;;;;;;;;;5052110;28;20040;-74
2022/10/13 03:41:47;;;;;;;29.20;17.63;;;;;;;;;;5050105;28;20080;-74
2022/10/13 03:44:13;;;;;;;27.45;16.13;;;;;;;;;;5049441;28;20047;-74
2022/10/13 03:46:39;;;;;;;28.80;17.80;;;;;;;;;;5051706;28;20056;-73
2022/10/13 03:49:05;;;;;;;27.90;17.75;;;;;;;;;;5050273;28;20388;-74
2022/10/13 03:51:32;;;;;;;28.23;17.67;;;;;;;;;;5050665;28;20041;-74
2022/10/13 03:53:58;;;;;;;25.48;17.40;;;;;;;;;;5044680;28;20041;-73
2022/10/13 03:56:25;;;;;;;24.45;17.45;;;;;;;;;;5053018;28;20056;-73
2022/10/13 03:58:54;;;;;;;28.40;17.92;;;;;;;;;;5050120;28;20521;-73
2022/10/13 04:01:21;;;;;;;27.63;19.48;;;;;;;;;;5030906;28;20124;-73
2022/10/13 04:03:47;;;;;;;29.90;18.05;;;;;;;;;;5026142;28;20136;-73
2022/10/13 04:06:13;;;;;;;23.60;17.55;;;;;;;;;;5050081;28;20041;-73
2022/10/13 04:08:39;;;;;;;27.27;17.27;;;;;;;;;;5045628;28;20103;-74
2022/10/13 04:11:07;;;;;;;29.90;18.23;;;;;;;;;;5049381;28;20099;-73
2022/10/13 04:13:33;;;;;;;30.42;18.63;;;;;;;;;;5050407;28;20133;-73
2022/10/13 04:16:07;;;;;;;28.50;18.30;;;;;;;;;;5052506;28;20517;-74
2022/10/13 04:18:33;;;;;;;29.02;19.60;;;;;;;;;;5050305;28;20133;-73
2022/10/13 04:21:00;;;;;;;28.45;19.55;;;;;;;;;;5050864;28;20455;-73
2022/10/13 04:23:26;;;;;;;35.35;19.08;;;;;;;;;;5051695;28;20120;-73
2022/10/13 04:25:52;;;;;;;31.48;19.20;;;;;;;;;;5051447;28;20119;-74
2022/10/13 04:28:18;;;;;;;29.73;20.48;;;;;;;;;;5050884;28;20037;-73
2022/10/13 04:30:44;;;;;;;31.77;19.45;;;;;;;;;;5044571;28;20391;-73
2022/10/13 04:33:10;;;;;;;28.13;19.42;;;;;;;;;;5052599;28;20103;-72
2022/10/13 04:35:40;;;;;;;30.20;20.83;;;;;;;;;;5050421;28;20049;-73
2022/10/13 04:38:06;;;;;;;31.88;21.08;;;;;;;;;;5049200;28;20079;-73
2022/10/13 04:40:32;;;;;;;30.88;20.08;;;;;;;;;;5033848;28;20410;-73
2022/10/13 04:42:58;;;;;;;30.45;20.92;;;;;;;;;;5050388;28;20041;-73
2022/10/13 04:45:24;;;;;;;37.35;21.83;;;;;;;;;;5048315;28;20120;-73
2022/10/13 04:47:50;;;;;;;37.08;22.88;;;;;;;;;;5052408;28;20067;-73
2022/10/13 04:50:16;;;;;;;31.60;20.38;;;;;;;;;;5049830;28;20124;-73
2022/10/13 04:52:42;;;;;;;31.13;20.83;;;;;;;;;;5049769;28;20072;-73
2022/10/13 04:55:09;;;;;;;32.00;20.90;;;;;;;;;;5050592;28;20045;-73
2022/10/13 04:57:35;;;;;;;36.28;21.80;;;;;;;;;;5048726;28;20041;-73
2022/10/13 05:00:01;;;;;;;35.40;21.13;;;;;;;;;;5051527;28;20041;-73
2022/10/13 05:02:27;;;;;;;35.90;22.25;;;;;;;;;;5046809;28;20045;-73
2022/10/13 05:04:53;;;;;;;36.90;22.17;;;;;;;;;;5045946;28;20040;-73
2022/10/13 05:07:19;;;;;;;31.13;21.25;;;;;;;;;;5050928;28;20033;-73
2022/10/13 05:09:45;;;;;;;36.17;22.00;;;;;;;;;;5050854;28;20052;-72
2022/10/13 05:12:11;;;;;;;37.15;21.33;;;;;;;;;;5041440;28;20557;-73
2022/10/13 05:14:37;;;;;;;36.83;22.67;;;;;;;;;;5042722;28;20123;-73
2022/10/13 05:17:03;;;;;;;31.80;19.70;;;;;;;;;;5049690;28;20041;-72
2022/10/13 05:19:29;;;;;;;31.20;19.17;;;;;;;;;;5050051;28;20045;-73
2022/10/13 05:21:55;;;;;;;32.58;20.60;;;;;;;;;;5050330;28;20040;-73
2022/10/13 05:24:29;;;;;;;33.08;21.30;;;;;;;;;;5003093;28;20073;-73
2022/10/13 05:26:55;;;;;;;34.95;22.20;;;;;;;;;;5049129;28;20064;-74
2022/10/13 05:29:21;;;;;;;39.38;21.95;;;;;;;;;;5066398;28;20076;-73
2022/10/13 05:31:47;;;;;;;34.70;22.48;;;;;;;;;;5050972;28;20076;-73
2022/10/13 05:34:13;;;;;;;32.40;22.17;;;;;;;;;;5049802;28;20045;-74
2022/10/13 05:36:39;;;;;;;34.83;21.98;;;;;;;;;;5050672;28;20048;-73
2022/10/13 05:39:07;;;;;;;37.95;23.23;;;;;;;;;;5047445;28;20384;-73
2022/10/13 05:41:33;;;;;;;37.70;22.60;;;;;;;;;;5050417;28;20052;-73
2022/10/13 05:44:01;;;;;;;37.78;22.75;;;;;;;;;;5051075;28;20041;-73
2022/10/13 05:46:27;;;;;;;40.30;23.52;;;;;;;;;;5025087;28;21284;-73
2022/10/13 05:48:53;;;;;;;41.00;23.45;;;;;;;;;;5046263;28;20052;-73
2022/10/13 05:51:22;;;;;;;37.42;24.45;;;;;;;;;;5050923;28;20095;-73
2022/10/13 05:53:52;;;;;;;39.83;23.65;;;;;;;;;;5050719;28;20033;-73
2022/10/13 05:56:21;;;;;;;40.42;25.70;;;;;;;;;;5049479;28;20045;-73
2022/10/13 05:58:49;;;;;;;45.83;26.73;;;;;;;;;;5052089;28;20553;-73
2022/10/13 06:01:17;;;;;;;46.50;26.45;;;;;;;;;;5050882;28;20037;-73
2022/10/13 06:03:43;;;;;;;40.20;25.20;;;;;;;;;;5050849;28;20095;-73
2022/10/13 06:06:09;;;;;;;50.78;26.90;;;;;;;;;;5049684;28;20120;-73
2022/10/13 06:08:36;;;;;;;41.47;27.40;;;;;;;;;;5068717;28;20041;-73
2022/10/13 06:11:03;;;;;;;48.03;26.75;;;;;;;;;;5034939;28;20419;-73
2022/10/13 06:13:29;;;;;;;44.90;24.73;;;;;;;;;;5046101;28;20106;-73
2022/10/13 06:15:55;;;;;;;42.05;24.45;;;;;;;;;;5051580;28;20546;-73
2022/10/13 06:18:21;;;;;;;38.03;24.40;;;;;;;;;;5051872;28;20064;-73
2022/10/13 06:20:47;;;;;;;39.90;23.58;;;;;;;;;;5039475;28;20056;-73
2022/10/13 06:23:13;;;;;;;35.17;23.83;;;;;;;;;;5034125;28;20044;-73
2022/10/13 06:25:46;;;;;;;38.42;24.20;;;;;;;;;;5053467;28;20044;-73
2022/10/13 06:28:12;;;;;;;37.35;23.23;;;;;;;;;;5055807;28;20052;-73
2022/10/13 06:30:38;;;;;;;42.83;24.48;;;;;;;;;;5047929;28;20112;-73
2022/10/13 06:33:04;;;;;;;33.15;23.02;;;;;;;;;;5034737;28;20137;-73
2022/10/13 06:35:30;;;;;;;37.92;24.83;;;;;;;;;;5047579;28;20088;-73
2022/10/13 06:37:56;;;;;;;39.53;24.20;;;;;;;;;;5062700;28;20048;-73
2022/10/13 06:40:22;;;;;;;42.50;23.77;;;;;;;;;;5056248;28;20067;-73
2022/10/13 06:42:49;;;;;;;43.30;23.08;;;;;;;;;;5074417;28;20072;-73
2022/10/13 06:45:16;;;;;;;35.92;24.05;;;;;;;;;;5059066;28;20049;-73
2022/10/13 06:47:42;;;;;;;40.05;24.08;;;;;;;;;;5041371;28;20445;-73
2022/10/13 06:50:08;;;;;;;41.97;23.67;;;;;;;;;;5034342;28;20075;-73
2022/10/13 06:52:34;;;;;;;36.67;23.92;;;;;;;;;;5034363;28;20057;-74
2022/10/13 06:55:00;;;;;;;34.42;22.55;;;;;;;;;;5027074;28;20056;-74
2022/10/13 06:57:26;;;;;;;44.60;24.85;;;;;;;;;;5053975;28;20095;-73
2022/10/13 06:59:52;;;;;;;40.60;23.40;;;;;;;;;;5053904;28;20056;-74
2022/10/13 07:02:18;;;;;;;37.15;22.13;;;;;;;;;;5056066;28;20128;-73
2022/10/13 07:04:44;;;;;;;40.50;24.17;;;;;;;;;;5053801;28;20502;-73
2022/10/13 07:07:10;;;;;;;38.20;23.77;;;;;;;;;;5053779;28;20518;-73
2022/10/13 07:09:36;;;;;;;41.08;25.10;;;;;;;;;;5036265;28;20076;-73
2022/10/13 07:12:02;;;;;;;37.70;24.40;;;;;;;;;;5044143;28;20044;-73
2022/10/13 07:14:28;;;;;;;36.03;24.15;;;;;;;;;;5053523;28;20041;-73
2022/10/13 07:16:54;;;;;;;38.55;24.13;;;;;;;;;;5052752;28;20488;-73
2022/10/13 07:19:20;;;;;;;39.53;25.13;;;;;;;;;;5052708;28;20080;-73
2022/10/13 07:21:46;;;;;;;41.78;25.48;;;;;;;;;;5042340;28;20124;-73
2022/10/13 07:24:12;;;;;;;35.78;23.80;;;;;;;;;;5046388;28;20127;-73
2022/10/13 07:26:38;;;;;;;40.25;25.65;;;;;;;;;;5046633;28;20227;-73
2022/10/13 07:29:04;;;;;;;40.85;25.27;;;;;;;;;;5051907;28;20140;-73
2022/10/13 07:31:33;;;;;;;39.25;25.73;;;;;;;;;;5053116;28;20165;-73
2022/10/13 07:34:00;;;;;;;41.83;26.20;;;;;;;;;;5062293;28;20106;-73
2022/10/13 07:36:26;;;;;;;41.63;24.65;;;;;;;;;;5039660;28;20156;-73
2022/10/13 07:38:52;;;;;;;37.95;24.08;;;;;;;;;;5034276;28;22511;-73
2022/10/13 07:41:18;;;;;;;42.83;24.70;;;;;;;;;;5048118;28;20292;-73
2022/10/13 07:43:44;;;;;;;33.50;22.00;;;;;;;;;;5053066;28;20402;-73
2022/10/13 07:46:12;;;;;;;41.75;25.13;;;;;;;;;;5044868;28;20044;-73
2022/10/13 07:48:38;;;;;;;41.50;26.20;;;;;;;;;;5072991;28;20036;-73
2022/10/13 07:51:09;;;;;;;37.13;25.27;;;;;;;;;;5073196;28;20052;-74
2022/10/13 07:53:35;;;;;;;38.15;23.95;;;;;;;;;;5073054;28;20079;-73
2022/10/13 07:56:01;;;;;;;43.58;26.42;;;;;;;;;;5058354;28;20040;-73
2022/10/13 07:58:28;;;;;;;33.53;19.92;;;;;;;;;;5033641;28;20044;-73
2022/10/13 08:00:58;;;;;;;46.08;25.98;;;;;;;;;;5015233;28;20105;-73
2022/10/13 08:03:24;;;;;;;41.65;24.45;;;;;;;;;;5047308;28;20435;-73
2022/10/13 08:05:50;;;;;;;43.83;26.10;;;;;;;;;;5052100;28;20044;-73
2022/10/13 08:08:16;;;;;;;44.80;27.50;;;;;;;;;;5053147;28;20052;-73
2022/10/13 08:10:42;;;;;;;44.55;26.75;;;;;;;;;;5052032;28;20049;-73
2022/10/13 08:13:09;;;;;;;42.40;25.75;;;;;;;;;;5052729;28;20041;-73
2022/10/13 08:15:38;;;;;;;42.97;27.13;;;;;;;;;;5052470;28;20056;-73
2022/10/13 08:18:04;;;;;;;39.95;26.35;;;;;;;;;;5052732;28;20037;-73
2022/10/13 08:20:30;;;;;;;38.17;26.00;;;;;;;;;;5046206;28;20091;-73
2022/10/13 08:22:56;;;;;;;39.00;25.25;;;;;;;;;;5051924;28;20040;-73
2022/10/13 08:25:23;;;;;;;41.00;26.63;;;;;;;;;;5053528;28;20075;-73
2022/10/13 08:27:49;;;;;;;36.00;22.88;;;;;;;;;;5072178;28;20124;-73
2022/10/13 08:30:15;;;;;;;42.00;26.35;;;;;;;;;;5069546;28;20052;-73
2022/10/13 08:32:41;;;;;;;35.70;23.30;;;;;;;;;;5032464;28;20083;-73
2022/10/13 08:35:08;;;;;;;41.05;26.30;;;;;;;;;;5031900;28;20520;-73
2022/10/13 08:37:34;;;;;;;39.65;25.75;;;;;;;;;;5051771;28;20056;-73
2022/10/13 08:40:00;;;;;;;41.95;25.33;;;;;;;;;;5033228;28;20045;-73
2022/10/13 08:42:26;;;;;;;34.22;23.98;;;;;;;;;;5047591;28;20878;-73
2022/10/13 08:44:56;;;;;;;36.08;24.77;;;;;;;;;;5050787;28;20048;-73
2022/10/13 08:47:41;;;;;;;35.00;21.60;;;;;;;;;;5050921;28;20056;-73
2022/10/13 08:50:12;;;;;;;36.42;24.40;;;;;;;;;;5052087;28;20099;-73
2022/10/13 08:52:47;;;;;;;30.80;21.10;;;;;;;;;;5051283;28;20072;-73
2022/10/13 08:55:17;;;;;;;31.27;21.17;;;;;;;;;;5051830;28;20071;-73
2022/10/13 08:57:44;;;;;;;34.15;23.90;;;;;;;;;;5052222;28;20064;-73
2022/10/13 09:00:12;;;;;;;30.25;22.65;;;;;;;;;;5052287;28;20037;-73
2022/10/13 09:02:38;;;;;;;33.20;23.58;;;;;;;;;;5049000;28;20071;-73
2022/10/13 09:05:04;;;;;;;28.48;20.52;;;;;;;;;;5051285;28;20497;-73
2022/10/13 09:07:35;;;;;;;31.90;21.05;;;;;;;;;;5051842;28;20041;-73
2022/10/13 09:10:01;;;;;;;31.45;21.63;;;;;;;;;;5051616;28;20521;-73
2022/10/13 09:12:27;;;;;;;31.70;22.48;;;;;;;;;;5052114;28;20037;-73
2022/10/13 09:15:00;;;;;;;33.58;22.77;;;;;;;;;;5051676;28;20506;-73
2022/10/13 09:17:27;;;;;;;28.25;22.40;;;;;;;;;;5063515;28;20040;-73
2022/10/13 09:20:02;;;;;;;35.10;22.83;;;;;;;;;;5037310;28;20059;-73
2022/10/13 09:22:32;;;;;;;34.17;22.90;;;;;;;;;;5071670;28;20049;-73
2022/10/13 09:25:10;;;;;;;33.75;23.80;;;;;;;;;;5054065;28;20123;-73
2022/10/13 09:27:42;;;;;;;32.53;22.88;;;;;;;;;;5071907;28;20048;-73
2022/10/13 09:30:28;;;;;;;36.45;23.83;;;;;;;;;;5065634;28;20041;-73
2022/10/13 09:33:07;;;;;;;33.85;23.70;;;;;;;;;;5050453;28;20086;-73
2022/10/13 09:35:33;;;;;;;30.95;22.70;;;;;;;;;;5038758;28;20142;-73
2022/10/13 09:38:14;;;;;;;32.65;23.95;;;;;;;;;;5050230;28;20045;-73
2022/10/13 09:40:40;;;;;;;36.00;24.85;;;;;;;;;;5052665;28;20036;-73
2022/10/13 09:43:17;;;;;;;34.42;23.17;;;;;;;;;;5051635;28;20517;-73
2022/10/13 09:45:43;;;;;;;41.60;25.27;;;;;;;;;;5034777;28;20049;-73
2022/10/13 09:48:15;;;;;;;33.53;25.15;;;;;;;;;;5050391;28;20044;-73
2022/10/13 09:50:47;;;;;;;41.28;24.45;;;;;;;;;;5053201;28;20124;-73
2022/10/13 09:53:19;;;;;;;34.03;24.67;;;;;;;;;;5052125;28;20095;-73
2022/10/13 09:55:47;;;;;;;33.90;22.10;;;;;;;;;;5053905;28;20041;-73
2022/10/13 09:58:16;;;;;;;32.75;22.27;;;;;;;;;;5047480;28;20079;-73
2022/10/13 10:00:43;;;;;;;33.63;23.73;;;;;;;;;;5055181;28;20041;-73
2022/10/13 10:03:17;;;;;;;33.20;22.05;;;;;;;;;;5054240;28;20563;-73
2022/10/13 10:05:51;;;;;;;35.03;22.35;;;;;;;;;;5055055;28;20041;-73
2022/10/13 10:08:23;;;;;;;32.20;21.48;;;;;;;;;;5054356;28;20053;-73
2022/10/13 10:10:49;;;;;;;35.92;23.45;;;;;;;;;;5055110;28;20056;-73
2022/10/13 10:13:15;;;;;;;31.15;21.65;;;;;;;;;;5063650;28;20037;-73
2022/10/13 10:15:56;;;;;;;34.42;21.58;;;;;;;;;;5049069;28;20124;-73
2022/10/13 10:18:31;;;;;;;26.10;19.05;;;;;;;;;;5051337;28;20087;-73
2022/10/13 10:21:15;;;;;;;29.70;21.27;;;;;;;;;;5054854;28;20048;-73
2022/10/13 10:23:47;;;;;;;31.90;23.92;;;;;;;;;;5046172;28;20053;-73
2022/10/13 10:26:13;;;;;;;34.05;22.35;;;;;;;;;;5035814;28;20045;-73
2022/10/13 10:28:56;;;;;;;28.95;20.70;;;;;;;;;;5049934;28;20052;-73
2022/10/13 10:31:41;;;;;;;28.10;21.35;;;;;;;;;;5054123;28;20116;-73
2022/10/13 10:34:21;;;;;;;28.88;21.15;;;;;;;;;;5035322;28;20041;-73
2022/10/13 10:36:56;;;;;;;32.78;22.10;;;;;;;;;;5053829;28;20084;-73
2022/10/13 10:39:36;;;;;;;30.83;21.83;;;;;;;;;;5054403;28;20044;-73
2022/10/13 10:42:19;;;;;;;30.27;21.88;;;;;;;;;;5044365;28;20102;-73
2022/10/13 10:44:47;;;;;;;31.02;22.73;;;;;;;;;;5054288;28;20049;-73
2022/10/13 10:47:24;;;;;;;29.63;21.10;;;;;;;;;;5054239;28;20052;-73
2022/10/13 10:49:53;;;;;;;30.02;21.10;;;;;;;;;;5054202;28;20045;-73
2022/10/13 10:52:42;;;;;;;31.42;23.70;;;;;;;;;;5053758;28;20134;-73
2022/10/13 10:55:19;;;;;;;31.73;22.25;;;;;;;;;;5034418;28;20053;-73
2022/10/13 10:57:59;;;;;;;28.80;20.58;;;;;;;;;;5046166;28;20053;-74
2022/10/13 11:00:25;;;;;;;31.15;22.02;;;;;;;;;;5022125;28;20037;-73
2022/10/13 11:02:51;;;;;;;30.70;20.83;;;;;;;;;;5035489;28;20394;-73
2022/10/13 11:05:17;;;;;;;31.80;22.95;;;;;;;;;;5035638;28;20056;-73
2022/10/13 11:07:44;;;;;;;28.95;20.92;;;;;;;;;;5051726;28;20052;-73
2022/10/13 11:10:15;;;;;;;34.58;22.75;;;;;;;;;;5035002;28;20033;-73
2022/10/13 11:12:50;;;;;;;34.97;24.20;;;;;;;;;;5051046;28;20056;-73
2022/10/13 11:15:32;;;;;;;32.42;24.60;;;;;;;;;;5061820;28;20048;-73
2022/10/13 11:17:58;;;;;;;34.33;24.67;;;;;;;;;;5053748;28;20049;-73
2022/10/13 11:20:27;;;;;;;37.60;26.60;;;;;;;;;;5052368;28;20056;-73
2022/10/13 11:22:59;;;;;;;34.75;24.38;;;;;;;;;;5051510;28;20041;-73
2022/10/13 11:25:38;;;;;;;40.10;29.13;;;;;;;;;;5052187;28;20071;-73
2022/10/13 11:28:25;;;;;;;39.45;27.58;;;;;;;;;;5053534;28;20044;-73
2022/10/13 11:30:53;;;;;;;39.95;30.30;;;;;;;;;;5052395;28;20116;-72
2022/10/13 11:33:31;;;;;;;36.00;26.25;;;;;;;;;;5053677;28;20336;-73
2022/10/13 11:35:57;;;;;;;49.33;31.02;;;;;;;;;;5033151;28;20050;-73
2022/10/13 11:38:29;;;;;;;39.67;27.10;;;;;;;;;;5033280;28;20450;-73
2022/10/13 11:41:16;;;;;;;45.85;30.13;;;;;;;;;;5044468;28;20084;-73
2022/10/13 11:43:54;;;;;;;40.53;29.75;;;;;;;;;;5035901;28;20036;-73
2022/10/13 11:46:34;;;;;;;42.83;28.90;;;;;;;;;;5053353;28;20052;-73
2022/10/13 11:49:18;;;;;;;36.17;25.48;;;;;;;;;;5043814;28;20057;-73
2022/10/13 11:52:06;;;;;;;34.75;26.85;;;;;;;;;;5047560;28;20100;-73
2022/10/13 11:54:38;;;;;;;40.75;28.60;;;;;;;;;;5049197;28;20049;-73
2022/10/13 11:57:17;;;;;;;37.17;28.35;;;;;;;;;;5047143;28;20046;-73
2022/10/13 11:59:46;;;;;;;39.33;29.10;;;;;;;;;;5033652;28;20055;-74
2022/10/13 12:02:15;;;;;;;42.17;30.08;;;;;;;;;;5052306;28;20056;-73
2022/10/13 12:04:41;;;;;;;40.92;31.98;;;;;;;;;;5050397;28;21055;-73
2022/10/13 12:07:11;;;;;;;43.55;31.75;;;;;;;;;;5043462;28;20419;-73
2022/10/13 12:09:48;;;;;;;42.28;32.35;;;;;;;;;;5052687;28;20044;-73
2022/10/13 12:12:16;;;;;;;42.70;32.10;;;;;;;;;;5034297;28;20053;-73
2022/10/13 12:14:43;;;;;;;44.85;31.92;;;;;;;;;;5049819;28;20098;-73
2022/10/13 12:17:28;;;;;;;41.22;31.25;;;;;;;;;;5052367;28;20673;-71
2022/10/13 12:20:00;;;;;;;43.05;33.72;;;;;;;;;;5052480;28;20445;-73
2022/10/13 12:22:28;;;;;;;49.25;34.13;;;;;;;;;;5052462;28;20483;-72
2022/10/13 12:24:58;;;;;;;43.00;31.38;;;;;;;;;;5052366;28;20049;-72
2022/10/13 12:27:25;;;;;;;41.67;31.30;;;;;;;;;;5052785;28;20041;-72
2022/10/13 12:29:51;;;;;;;37.55;29.15;;;;;;;;;;5049498;28;20323;-72
2022/10/13 12:32:18;;;;;;;46.78;33.88;;;;;;;;;;5050514;28;20077;-73
2022/10/13 12:34:44;;;;;;;50.20;33.53;;;;;;;;;;5052256;28;20049;-72
2022/10/13 12:37:18;;;;;;;34.33;26.70;;;;;;;;;;5052057;28;20053;-72
2022/10/13 12:39:44;;;;;;;39.03;30.40;;;;;;;;;;5052356;28;20068;-72
2022/10/13 12:42:12;;;;;;;46.70;34.30;;;;;;;;;;5060773;28;20044;-72
2022/10/13 12:44:38;;;;;;;41.85;30.20;;;;;;;;;;5052024;28;20049;-72
2022/10/13 12:47:05;;;;;;;49.78;34.10;;;;;;;;;;5051629;28;20044;-73
2022/10/13 12:49:31;;;;;;;41.55;29.27;;;;;;;;;;5034725;28;20052;-72
2022/10/13 12:52:14;;;;;;;40.55;31.02;;;;;;;;;;5040848;28;20388;-72
2022/10/13 12:54:48;;;;;;;48.15;34.03;;;;;;;;;;5051448;28;20494;-72
2022/10/13 12:57:18;;;;;;;39.03;29.70;;;;;;;;;;5050843;28;20508;-71
2022/10/13 12:59:44;;;;;;;47.08;32.60;;;;;;;;;;5048513;28;20055;-71
2022/10/13 13:02:21;;;;;;;44.95;33.45;;;;;;;;;;5066766;28;20045;-72
2022/10/13 13:04:47;;;;;;;43.97;33.80;;;;;;;;;;5047866;28;20041;-71
2022/10/13 13:07:28;;;;;;;49.88;35.38;;;;;;;;;;5036613;28;20045;-72
2022/10/13 13:10:21;;;;;;;40.78;31.08;;;;;;;;;;5052074;28;20140;-71
2022/10/13 13:12:48;;;;;;;45.80;32.97;;;;;;;;;;5048333;28;20525;-71
2022/10/13 13:15:37;;;;;;;53.63;37.33;;;;;;;;;;5045189;28;20048;-72
2022/10/13 13:18:21;;;;;;;51.67;35.00;;;;;;;;;;5046248;28;20179;-72
2022/10/13 13:20:47;;;;;;;51.72;34.78;;;;;;;;;;5055048;28;20037;-72
2022/10/13 13:23:17;;;;;;;43.95;31.00;;;;;;;;;;5055928;28;20056;-72
2022/10/13 13:25:43;;;;;;;47.17;34.63;;;;;;;;;;5055872;28;20127;-72
2022/10/13 13:28:12;;;;;;;47.28;34.00;;;;;;;;;;5055642;28;20052;-71
2022/10/13 13:30:38;;;;;;;39.95;30.90;;;;;;;;;;5055916;28;20049;-72
2022/10/13 13:33:04;;;;;;;42.08;31.30;;;;;;;;;;5055766;28;20048;-72
2022/10/13 13:35:30;;;;;;;37.03;28.27;;;;;;;;;;5051321;28;20052;-72
2022/10/13 13:37:56;;;;;;;39.63;31.80;;;;;;;;;;5048301;28;20136;-72
2022/10/13 13:40:23;;;;;;;41.67;31.17;;;;;;;;;;5048625;28;20130;-72
2022/10/13 13:42:49;;;;;;;38.25;29.48;;;;;;;;;;5054675;28;20041;-72
2022/10/13 13:45:16;;;;;;;40.13;31.23;;;;;;;;;;5055037;28;20080;-72
2022/10/13 13:47:42;;;;;;;46.90;33.83;;;;;;;;;;5053187;28;20048;-72
2022/10/13 13:50:17;;;;;;;36.60;29.10;;;;;;;;;;5059011;28;20043;-72
2022/10/13 13:52:43;;;;;;;35.10;28.98;;;;;;;;;;5054681;28;20067;-72
2022/10/13 13:55:09;;;;;;;39.97;28.83;;;;;;;;;;5032580;28;20463;-72
2022/10/13 13:57:35;;;;;;;40.33;31.83;;;;;;;;;;5002250;28;20057;-72
2022/10/13 14:00:01;;;;;;;40.22;30.13;;;;;;;;;;5046203;28;20043;-72
2022/10/13 14:02:27;;;;;;;42.53;30.40;;;;;;;;;;5055278;28;20073;-72
2022/10/13 14:04:53;;;;;;;37.15;31.17;;;;;;;;;;5054411;28;20048;-72
2022/10/13 14:07:19;;;;;;;40.53;31.58;;;;;;;;;;5054306;28;20525;-72
2022/10/13 14:09:45;;;;;;;43.05;32.80;;;;;;;;;;5053770;28;20045;-72
2022/10/13 14:12:11;;;;;;;42.85;32.40;;;;;;;;;;5054300;28;20040;-72
2022/10/13 14:14:37;;;;;;;38.60;30.85;;;;;;;;;;5054156;28;20061;-72
2022/10/13 14:17:04;;;;;;;35.97;28.95;;;;;;;;;;5052501;28;20045;-72
2022/10/13 14:19:30;;;;;;;40.10;30.27;;;;;;;;;;5051520;28;20510;-72
2022/10/13 14:21:56;;;;;;;41.22;31.45;;;;;;;;;;5047468;28;20045;-72
2022/10/13 14:24:22;;;;;;;41.83;30.50;;;;;;;;;;5044490;28;20049;-72
2022/10/13 14:26:48;;;;;;;40.65;30.85;;;;;;;;;;5046356;28;20049;-72